sensor_id;sensor_type;location;lat;lon;timestamp;temperature;humidity
55795;DHT22;41716;51.910;4.430;2022-12-18T00:01:39;-0.50;99.90
55795;DHT22;41716;51.910;4.430;2022-12-18T00:06:40;-0.90;99.90
55795;DHT22;41716;51.910;4.430;2022-12-18T00:11:43;-0.50;99.90
55795;DHT22;41716;51.910;4.430;2022-12-18T00:16:45;-0.80;99.90
55795;DHT22;41716;51.910;4.430;2022-12-18T00:21:47;-0.70;99.90
55795;DHT22;41716;51.910;4.430;2022-12-18T00:26:50;-1.50;99.90
55795;DHT22;41716;51.910;4.430;2022-12-18T00:31:52;-0.40;99.90
55795;DHT22;41716;51.910;4.430;2022-12-18T00:36:54;-0.60;99.90
55795;DHT22;41716;51.910;4.430;2022-12-18T00:41:57;-0.70;99.90
55795;DHT22;41716;51.910;4.430;2022-12-18T00:47:16;-1.40;99.90
55795;DHT22;41716;51.910;4.430;2022-12-18T00:52:18;-1.80;99.90
55795;DHT22;41716;51.910;4.430;2022-12-18T00:57:21;-1.40;99.90
55795;DHT22;41716;51.910;4.430;2022-12-18T01:02:23;-0.70;99.90
55795;DHT22;41716;51.910;4.430;2022-12-18T01:07:24;-1.40;99.90
55795;DHT22;41716;51.910;4.430;2022-12-18T01:12:28;-1.90;99.90
55795;DHT22;41716;51.910;4.430;2022-12-18T01:17:29;-0.90;99.90
55795;DHT22;41716;51.910;4.430;2022-12-18T01:22:31;-1.80;99.90
55795;DHT22;41716;51.910;4.430;2022-12-18T01:27:34;-0.80;99.90
55795;DHT22;41716;51.910;4.430;2022-12-18T01:32:36;-1.10;99.90
55795;DHT22;41716;51.910;4.430;2022-12-18T01:37:38;-1.90;99.90
55795;DHT22;41716;51.910;4.430;2022-12-18T01:42:41;-2.00;99.90
55795;DHT22;41716;51.910;4.430;2022-12-18T01:47:45;-1.70;99.90
55795;DHT22;41716;51.910;4.430;2022-12-18T01:52:48;-1.10;99.90
55795;DHT22;41716;51.910;4.430;2022-12-18T01:57:55;-1.30;99.90
55795;DHT22;41716;51.910;4.430;2022-12-18T02:02:57;-1.30;99.90
55795;DHT22;41716;51.910;4.430;2022-12-18T02:08:07;-1.20;99.90
55795;DHT22;41716;51.910;4.430;2022-12-18T02:13:18;-1.20;99.90
55795;DHT22;41716;51.910;4.430;2022-12-18T02:18:25;-2.00;99.90
55795;DHT22;41716;51.910;4.430;2022-12-18T02:23:42;-2.10;99.90
55795;DHT22;41716;51.910;4.430;2022-12-18T02:28:52;-1.20;99.90
55795;DHT22;41716;51.910;4.430;2022-12-18T02:33:56;-2.10;99.90
55795;DHT22;41716;51.910;4.430;2022-12-18T02:39:02;-1.20;99.90
55795;DHT22;41716;51.910;4.430;2022-12-18T02:44:09;-1.30;99.90
55795;DHT22;41716;51.910;4.430;2022-12-18T02:49:21;-2.20;99.90
55795;DHT22;41716;51.910;4.430;2022-12-18T02:54:41;-2.10;99.90
55795;DHT22;41716;51.910;4.430;2022-12-18T02:59:55;-1.50;99.90
55795;DHT22;41716;51.910;4.430;2022-12-18T03:05:03;-1.60;99.90
55795;DHT22;41716;51.910;4.430;2022-12-18T03:10:09;-2.40;99.90
55795;DHT22;41716;51.910;4.430;2022-12-18T03:15:18;-1.60;99.90
55795;DHT22;41716;51.910;4.430;2022-12-18T03:20:22;-2.30;99.90
55795;DHT22;41716;51.910;4.430;2022-12-18T03:25:25;-2.00;99.90
55795;DHT22;41716;51.910;4.430;2022-12-18T03:30:31;-2.20;99.90
55795;DHT22;41716;51.910;4.430;2022-12-18T03:35:39;-2.10;99.90
55795;DHT22;41716;51.910;4.430;2022-12-18T03:40:48;-1.40;99.90
55795;DHT22;41716;51.910;4.430;2022-12-18T03:46:00;-1.90;99.90
55795;DHT22;41716;51.910;4.430;2022-12-18T03:51:07;-2.00;99.90
55795;DHT22;41716;51.910;4.430;2022-12-18T03:56:13;-2.20;99.90
55795;DHT22;41716;51.910;4.430;2022-12-18T04:01:21;-1.80;99.90
55795;DHT22;41716;51.910;4.430;2022-12-18T04:06:25;-1.70;99.90
55795;DHT22;41716;51.910;4.430;2022-12-18T04:11:27;-1.90;99.90
55795;DHT22;41716;51.910;4.430;2022-12-18T04:16:30;-1.60;99.90
55795;DHT22;41716;51.910;4.430;2022-12-18T04:21:31;-2.40;99.90
55795;DHT22;41716;51.910;4.430;2022-12-18T04:26:33;-1.70;99.90
55795;DHT22;41716;51.910;4.430;2022-12-18T04:31:36;-2.20;99.90
55795;DHT22;41716;51.910;4.430;2022-12-18T04:36:38;-2.30;99.90
55795;DHT22;41716;51.910;4.430;2022-12-18T04:41:40;-1.70;99.90
55795;DHT22;41716;51.910;4.430;2022-12-18T04:46:43;-1.70;99.90
55795;DHT22;41716;51.910;4.430;2022-12-18T04:51:45;-1.80;99.90
55795;DHT22;41716;51.910;4.430;2022-12-18T04:56:47;-1.80;99.90
55795;DHT22;41716;51.910;4.430;2022-12-18T05:01:50;-1.60;99.90
55795;DHT22;41716;51.910;4.430;2022-12-18T05:06:52;-1.70;99.90
55795;DHT22;41716;51.910;4.430;2022-12-18T05:11:53;-2.00;99.90
55795;DHT22;41716;51.910;4.430;2022-12-18T05:16:56;-2.50;99.90
55795;DHT22;41716;51.910;4.430;2022-12-18T05:21:58;-1.80;99.90
55795;DHT22;41716;51.910;4.430;2022-12-18T05:27:00;-1.70;99.90
55795;DHT22;41716;51.910;4.430;2022-12-18T05:32:03;-2.50;99.90
55795;DHT22;41716;51.910;4.430;2022-12-18T05:37:05;-2.30;99.90
55795;DHT22;41716;51.910;4.430;2022-12-18T05:42:07;-2.40;99.90
55795;DHT22;41716;51.910;4.430;2022-12-18T05:47:10;-2.00;99.90
55795;DHT22;41716;51.910;4.430;2022-12-18T05:52:12;-1.90;99.90
55795;DHT22;41716;51.910;4.430;2022-12-18T05:57:14;-1.80;99.90
55795;DHT22;41716;51.910;4.430;2022-12-18T06:02:17;-2.10;99.90
55795;DHT22;41716;51.910;4.430;2022-12-18T06:07:18;-2.10;99.90
55795;DHT22;41716;51.910;4.430;2022-12-18T06:12:20;-2.00;99.90
55795;DHT22;41716;51.910;4.430;2022-12-18T06:17:23;-2.50;99.90
55795;DHT22;41716;51.910;4.430;2022-12-18T06:22:30;-2.10;99.90
55795;DHT22;41716;51.910;4.430;2022-12-18T06:27:32;-2.50;99.90
55795;DHT22;41716;51.910;4.430;2022-12-18T06:32:36;-2.10;99.90
55795;DHT22;41716;51.910;4.430;2022-12-18T06:37:37;-2.60;99.90
55795;DHT22;41716;51.910;4.430;2022-12-18T06:42:39;-2.60;99.90
55795;DHT22;41716;51.910;4.430;2022-12-18T06:47:42;-2.10;99.90
55795;DHT22;41716;51.910;4.430;2022-12-18T06:52:44;-2.40;99.90
55795;DHT22;41716;51.910;4.430;2022-12-18T06:57:46;-2.70;99.90
55795;DHT22;41716;51.910;4.430;2022-12-18T07:02:49;-2.40;99.90
55795;DHT22;41716;51.910;4.430;2022-12-18T07:07:50;-2.80;99.90
55795;DHT22;41716;51.910;4.430;2022-12-18T07:12:52;-2.80;99.90
55795;DHT22;41716;51.910;4.430;2022-12-18T07:17:55;-2.50;99.90
55795;DHT22;41716;51.910;4.430;2022-12-18T07:22:57;-2.50;99.90
55795;DHT22;41716;51.910;4.430;2022-12-18T07:27:59;-2.80;99.90
55795;DHT22;41716;51.910;4.430;2022-12-18T07:33:02;-2.50;99.90
55795;DHT22;41716;51.910;4.430;2022-12-18T07:38:03;-2.60;99.90
55795;DHT22;41716;51.910;4.430;2022-12-18T07:43:05;-2.90;99.90
55795;DHT22;41716;51.910;4.430;2022-12-18T07:48:08;-2.70;99.90
55795;DHT22;41716;51.910;4.430;2022-12-18T07:53:10;-2.70;99.90
55795;DHT22;41716;51.910;4.430;2022-12-18T07:58:11;-2.50;99.90
55795;DHT22;41716;51.910;4.430;2022-12-18T08:03:15;-2.70;99.90
55795;DHT22;41716;51.910;4.430;2022-12-18T08:08:17;-2.90;99.90
55795;DHT22;41716;51.910;4.430;2022-12-18T08:13:18;-2.70;99.90
55795;DHT22;41716;51.910;4.430;2022-12-18T08:18:22;-2.80;99.90
55795;DHT22;41716;51.910;4.430;2022-12-18T08:23:23;-2.40;99.90
55795;DHT22;41716;51.910;4.430;2022-12-18T08:28:25;-2.50;99.90
55795;DHT22;41716;51.910;4.430;2022-12-18T08:33:28;-2.90;99.90
55795;DHT22;41716;51.910;4.430;2022-12-18T08:38:31;-2.60;99.90
55795;DHT22;41716;51.910;4.430;2022-12-18T08:43:33;-2.60;99.90
55795;DHT22;41716;51.910;4.430;2022-12-18T08:48:54;-2.80;99.90
55795;DHT22;41716;51.910;4.430;2022-12-18T08:53:56;-2.40;99.90
55795;DHT22;41716;51.910;4.430;2022-12-18T08:58:58;-2.80;99.90
55795;DHT22;41716;51.910;4.430;2022-12-18T09:04:01;-2.30;99.90
55795;DHT22;41716;51.910;4.430;2022-12-18T09:09:04;-2.40;99.90
55795;DHT22;41716;51.910;4.430;2022-12-18T09:14:06;-2.30;99.90
55795;DHT22;41716;51.910;4.430;2022-12-18T09:19:10;-2.20;99.90
55795;DHT22;41716;51.910;4.430;2022-12-18T09:24:13;-2.20;99.90
55795;DHT22;41716;51.910;4.430;2022-12-18T09:29:15;-2.30;99.90
55795;DHT22;41716;51.910;4.430;2022-12-18T09:34:18;-2.20;99.90
55795;DHT22;41716;51.910;4.430;2022-12-18T09:39:21;-2.00;99.90
55795;DHT22;41716;51.910;4.430;2022-12-18T09:44:25;-2.20;99.90
55795;DHT22;41716;51.910;4.430;2022-12-18T09:49:30;-2.20;99.90
55795;DHT22;41716;51.910;4.430;2022-12-18T09:54:36;-1.80;99.90
55795;DHT22;41716;51.910;4.430;2022-12-18T09:59:40;-2.00;99.90
55795;DHT22;41716;51.910;4.430;2022-12-18T10:04:52;-1.60;99.90
55795;DHT22;41716;51.910;4.430;2022-12-18T10:10:02;-1.60;99.90
55795;DHT22;41716;51.910;4.430;2022-12-18T10:15:15;-1.60;99.90
55795;DHT22;41716;51.910;4.430;2022-12-18T10:20:27;-1.50;99.90
55795;DHT22;41716;51.910;4.430;2022-12-18T10:25:36;-1.40;99.90
55795;DHT22;41716;51.910;4.430;2022-12-18T10:30:40;-1.50;99.90
55795;DHT22;41716;51.910;4.430;2022-12-18T10:35:46;-1.60;99.90
55795;DHT22;41716;51.910;4.430;2022-12-18T10:40:53;-1.60;99.90
55795;DHT22;41716;51.910;4.430;2022-12-18T10:46:14;-1.30;99.90
55795;DHT22;41716;51.910;4.430;2022-12-18T10:51:23;-1.10;99.90
55795;DHT22;41716;51.910;4.430;2022-12-18T10:56:27;-1.00;99.90
55795;DHT22;41716;51.910;4.430;2022-12-18T11:01:46;-1.00;99.90
55795;DHT22;41716;51.910;4.430;2022-12-18T11:06:57;-1.00;99.90
55795;DHT22;41716;51.910;4.430;2022-12-18T11:12:01;-1.10;99.90
55795;DHT22;41716;51.910;4.430;2022-12-18T11:17:03;-1.10;99.90
55795;DHT22;41716;51.910;4.430;2022-12-18T11:22:20;-0.80;99.90
55795;DHT22;41716;51.910;4.430;2022-12-18T11:27:22;-0.70;99.90
55795;DHT22;41716;51.910;4.430;2022-12-18T11:32:29;-0.60;99.90
55795;DHT22;41716;51.910;4.430;2022-12-18T11:37:34;-0.90;99.90
55795;DHT22;41716;51.910;4.430;2022-12-18T11:42:41;-0.90;99.90
55795;DHT22;41716;51.910;4.430;2022-12-18T11:47:49;-0.50;99.90
55795;DHT22;41716;51.910;4.430;2022-12-18T11:52:55;-0.70;99.90
55795;DHT22;41716;51.910;4.430;2022-12-18T11:58:02;-0.60;99.90
55795;DHT22;41716;51.910;4.430;2022-12-18T12:03:27;-0.90;99.90
55795;DHT22;41716;51.910;4.430;2022-12-18T12:08:47;-0.60;99.90
55795;DHT22;41716;51.910;4.430;2022-12-18T12:14:03;-0.90;99.90
55795;DHT22;41716;51.910;4.430;2022-12-18T12:19:21;-0.80;99.90
55795;DHT22;41716;51.910;4.430;2022-12-18T12:24:35;-0.70;99.90
55795;DHT22;41716;51.910;4.430;2022-12-18T12:29:49;-0.80;99.90
55795;DHT22;41716;51.910;4.430;2022-12-18T12:35:06;-0.60;99.90
55795;DHT22;41716;51.910;4.430;2022-12-18T12:40:15;-0.70;99.90
55795;DHT22;41716;51.910;4.430;2022-12-18T12:45:22;-0.50;99.90
55795;DHT22;41716;51.910;4.430;2022-12-18T12:50:26;-0.70;99.90
55795;DHT22;41716;51.910;4.430;2022-12-18T12:55:29;-0.70;99.90
55795;DHT22;41716;51.910;4.430;2022-12-18T13:00:38;-0.20;99.90
55795;DHT22;41716;51.910;4.430;2022-12-18T13:05:45;-0.30;99.90
55795;DHT22;41716;51.910;4.430;2022-12-18T13:10:52;-0.30;99.90
55795;DHT22;41716;51.910;4.430;2022-12-18T13:16:18;-0.30;99.90
55795;DHT22;41716;51.910;4.430;2022-12-18T13:21:24;-0.70;99.90
55795;DHT22;41716;51.910;4.430;2022-12-18T13:26:37;-0.60;99.90
55795;DHT22;41716;51.910;4.430;2022-12-18T13:31:59;-0.10;99.90
55795;DHT22;41716;51.910;4.430;2022-12-18T13:42:45;-0.60;99.90
55795;DHT22;41716;51.910;4.430;2022-12-18T13:48:04;-0.20;99.90
55795;DHT22;41716;51.910;4.430;2022-12-18T13:53:07;-0.30;99.90
55795;DHT22;41716;51.910;4.430;2022-12-18T13:58:14;-0.10;99.90
55795;DHT22;41716;51.910;4.430;2022-12-18T14:03:19;-0.60;99.90
55795;DHT22;41716;51.910;4.430;2022-12-18T14:08:21;-0.20;99.90
55795;DHT22;41716;51.910;4.430;2022-12-18T14:13:29;-0.50;99.90
55795;DHT22;41716;51.910;4.430;2022-12-18T14:18:41;-0.30;99.90
55795;DHT22;41716;51.910;4.430;2022-12-18T14:23:44;-0.20;99.90
55795;DHT22;41716;51.910;4.430;2022-12-18T14:28:48;-0.20;99.90
55795;DHT22;41716;51.910;4.430;2022-12-18T14:33:50;-0.40;99.90
55795;DHT22;41716;51.910;4.430;2022-12-18T14:38:52;0.00;99.90
55795;DHT22;41716;51.910;4.430;2022-12-18T14:44:05;-0.30;99.90
55795;DHT22;41716;51.910;4.430;2022-12-18T14:49:19;0.10;99.90
55795;DHT22;41716;51.910;4.430;2022-12-18T14:54:23;-0.30;99.90
55795;DHT22;41716;51.910;4.430;2022-12-18T14:59:28;-0.30;99.90
55795;DHT22;41716;51.910;4.430;2022-12-18T15:04:32;0.10;99.90
55795;DHT22;41716;51.910;4.430;2022-12-18T15:09:34;0.20;99.90
55795;DHT22;41716;51.910;4.430;2022-12-18T15:14:40;0.20;99.90
55795;DHT22;41716;51.910;4.430;2022-12-18T15:19:43;0.20;99.90
55795;DHT22;41716;51.910;4.430;2022-12-18T15:24:46;-0.10;99.90
55795;DHT22;41716;51.910;4.430;2022-12-18T15:35:20;-0.10;99.90
55795;DHT22;41716;51.910;4.430;2022-12-18T15:40:23;0.20;99.90
55795;DHT22;41716;51.910;4.430;2022-12-18T15:45:26;-0.20;99.90
55795;DHT22;41716;51.910;4.430;2022-12-18T15:50:28;-0.10;99.90
55795;DHT22;41716;51.910;4.430;2022-12-18T15:55:31;-0.20;99.90
55795;DHT22;41716;51.910;4.430;2022-12-18T16:00:52;0.00;99.90
55795;DHT22;41716;51.910;4.430;2022-12-18T16:05:53;-0.10;99.90
55795;DHT22;41716;51.910;4.430;2022-12-18T16:10:55;0.00;99.90
55795;DHT22;41716;51.910;4.430;2022-12-18T16:15:59;-0.20;99.90
55795;DHT22;41716;51.910;4.430;2022-12-18T16:21:00;-0.10;99.90
55795;DHT22;41716;51.910;4.430;2022-12-18T16:26:02;0.30;99.90
55795;DHT22;41716;51.910;4.430;2022-12-18T16:31:07;-0.10;99.90
55795;DHT22;41716;51.910;4.430;2022-12-18T16:36:09;0.20;99.90
55795;DHT22;41716;51.910;4.430;2022-12-18T16:41:18;0.40;99.90
55795;DHT22;41716;51.910;4.430;2022-12-18T16:46:33;0.00;99.90
55795;DHT22;41716;51.910;4.430;2022-12-18T16:51:35;0.00;99.90
55795;DHT22;41716;51.910;4.430;2022-12-18T16:56:37;0.00;99.90
55795;DHT22;41716;51.910;4.430;2022-12-18T17:01:40;0.30;99.90
55795;DHT22;41716;51.910;4.430;2022-12-18T17:06:43;0.60;99.90
55795;DHT22;41716;51.910;4.430;2022-12-18T17:11:47;0.40;99.90
55795;DHT22;41716;51.910;4.430;2022-12-18T17:16:51;0.10;99.90
55795;DHT22;41716;51.910;4.430;2022-12-18T17:21:53;0.70;99.90
55795;DHT22;41716;51.910;4.430;2022-12-18T17:26:55;0.30;99.90
55795;DHT22;41716;51.910;4.430;2022-12-18T17:31:58;0.20;99.90
55795;DHT22;41716;51.910;4.430;2022-12-18T17:36:59;0.70;99.90
55795;DHT22;41716;51.910;4.430;2022-12-18T17:42:01;0.30;99.90
55795;DHT22;41716;51.910;4.430;2022-12-18T17:47:04;0.60;99.90
55795;DHT22;41716;51.910;4.430;2022-12-18T17:52:06;0.70;99.90
55795;DHT22;41716;51.910;4.430;2022-12-18T17:57:08;0.50;99.90
55795;DHT22;41716;51.910;4.430;2022-12-18T18:02:11;0.30;99.90
55795;DHT22;41716;51.910;4.430;2022-12-18T18:07:13;0.60;99.90
55795;DHT22;41716;51.910;4.430;2022-12-18T18:12:14;0.50;99.90
55795;DHT22;41716;51.910;4.430;2022-12-18T18:17:35;1.10;99.90
55795;DHT22;41716;51.910;4.430;2022-12-18T18:22:37;0.60;99.90
55795;DHT22;41716;51.910;4.430;2022-12-18T18:27:38;0.60;99.90
55795;DHT22;41716;51.910;4.430;2022-12-18T18:32:42;0.70;99.90
55795;DHT22;41716;51.910;4.430;2022-12-18T18:37:43;0.80;99.90
55795;DHT22;41716;51.910;4.430;2022-12-18T18:42:47;0.60;99.90
55795;DHT22;41716;51.910;4.430;2022-12-18T18:47:51;0.80;99.90
55795;DHT22;41716;51.910;4.430;2022-12-18T18:52:53;1.10;99.90
55795;DHT22;41716;51.910;4.430;2022-12-18T18:57:54;1.30;99.90
55795;DHT22;41716;51.910;4.430;2022-12-18T19:02:57;0.80;99.90
55795;DHT22;41716;51.910;4.430;2022-12-18T19:07:59;1.00;99.90
55795;DHT22;41716;51.910;4.430;2022-12-18T19:13:01;1.40;99.90
55795;DHT22;41716;51.910;4.430;2022-12-18T19:18:22;1.10;99.90
55795;DHT22;41716;51.910;4.430;2022-12-18T19:23:24;0.60;99.90
55795;DHT22;41716;51.910;4.430;2022-12-18T19:28:26;1.50;99.90
55795;DHT22;41716;51.910;4.430;2022-12-18T19:33:31;1.50;99.90
55795;DHT22;41716;51.910;4.430;2022-12-18T19:38:33;1.30;99.90
55795;DHT22;41716;51.910;4.430;2022-12-18T19:43:36;1.30;99.90
55795;DHT22;41716;51.910;4.430;2022-12-18T19:48:39;0.70;99.90
55795;DHT22;41716;51.910;4.430;2022-12-18T19:53:41;0.90;99.90
55795;DHT22;41716;51.910;4.430;2022-12-18T19:58:43;1.90;99.90
55795;DHT22;41716;51.910;4.430;2022-12-18T20:03:46;1.60;99.90
55795;DHT22;41716;51.910;4.430;2022-12-18T20:08:49;0.80;99.90
55795;DHT22;41716;51.910;4.430;2022-12-18T20:13:51;1.40;99.90
55795;DHT22;41716;51.910;4.430;2022-12-18T20:18:54;1.00;99.90
55795;DHT22;41716;51.910;4.430;2022-12-18T20:23:55;1.10;99.90
55795;DHT22;41716;51.910;4.430;2022-12-18T20:28:59;0.90;99.90
55795;DHT22;41716;51.910;4.430;2022-12-18T20:34:02;2.20;99.90
55795;DHT22;41716;51.910;4.430;2022-12-18T20:39:04;0.80;99.90
55795;DHT22;41716;51.910;4.430;2022-12-18T20:44:11;2.20;99.90
55795;DHT22;41716;51.910;4.430;2022-12-18T20:49:14;2.00;99.90
55795;DHT22;41716;51.910;4.430;2022-12-18T20:54:16;2.10;99.90
55795;DHT22;41716;51.910;4.430;2022-12-18T20:59:19;1.70;99.90
55795;DHT22;41716;51.910;4.430;2022-12-18T21:04:24;2.60;99.90
55795;DHT22;41716;51.910;4.430;2022-12-18T21:09:25;2.30;99.90
55795;DHT22;41716;51.910;4.430;2022-12-18T21:14:28;2.50;99.90
55795;DHT22;41716;51.910;4.430;2022-12-18T21:19:31;1.50;99.90
55795;DHT22;41716;51.910;4.430;2022-12-18T21:24:33;1.70;99.90
55795;DHT22;41716;51.910;4.430;2022-12-18T21:29:35;2.30;99.90
55795;DHT22;41716;51.910;4.430;2022-12-18T21:34:39;1.50;99.90
55795;DHT22;41716;51.910;4.430;2022-12-18T21:39:41;1.40;99.90
55795;DHT22;41716;51.910;4.430;2022-12-18T21:44:43;2.10;99.90
55795;DHT22;41716;51.910;4.430;2022-12-18T21:49:48;3.00;99.90
55795;DHT22;41716;51.910;4.430;2022-12-18T21:54:50;2.80;99.90
55795;DHT22;41716;51.910;4.430;2022-12-18T21:59:52;2.10;99.90
55795;DHT22;41716;51.910;4.430;2022-12-18T22:04:55;1.80;99.90
55795;DHT22;41716;51.910;4.430;2022-12-18T22:09:57;1.50;99.90
55795;DHT22;41716;51.910;4.430;2022-12-18T22:14:58;2.80;99.90
55795;DHT22;41716;51.910;4.430;2022-12-18T22:20:01;3.20;99.90
55795;DHT22;41716;51.910;4.430;2022-12-18T22:25:04;3.30;99.90
55795;DHT22;41716;51.910;4.430;2022-12-18T22:30:06;1.70;99.90
55795;DHT22;41716;51.910;4.430;2022-12-18T22:35:10;3.40;99.90
55795;DHT22;41716;51.910;4.430;2022-12-18T22:40:17;3.40;99.90
55795;DHT22;41716;51.910;4.430;2022-12-18T22:45:19;1.60;99.90
55795;DHT22;41716;51.910;4.430;2022-12-18T22:50:22;3.00;99.90
55795;DHT22;41716;51.910;4.430;2022-12-18T22:55:24;3.50;99.90
55795;DHT22;41716;51.910;4.430;2022-12-18T23:00:26;3.50;99.90
55795;DHT22;41716;51.910;4.430;2022-12-18T23:05:30;1.70;99.90
55795;DHT22;41716;51.910;4.430;2022-12-18T23:10:31;3.70;99.90
55795;DHT22;41716;51.910;4.430;2022-12-18T23:15:33;1.80;99.90
55795;DHT22;41716;51.910;4.430;2022-12-18T23:20:36;3.70;99.90
55795;DHT22;41716;51.910;4.430;2022-12-18T23:25:38;3.70;99.90
55795;DHT22;41716;51.910;4.430;2022-12-18T23:30:40;2.20;99.90
55795;DHT22;41716;51.910;4.430;2022-12-18T23:35:43;3.10;99.90
55795;DHT22;41716;51.910;4.430;2022-12-18T23:40:44;3.50;99.90
55795;DHT22;41716;51.910;4.430;2022-12-18T23:45:46;3.90;99.90
55795;DHT22;41716;51.910;4.430;2022-12-18T23:50:49;3.50;99.90
55795;DHT22;41716;51.910;4.430;2022-12-18T23:55:50;2.20;99.90
